Time;durP1;ratioP1;P1;durP2;ratioP2;P2;SDS_P1;SDS_P2;PMS_P1;PMS_P2;Temp;Humidity;BMP_temperature;BMP_pressure;BME280_temperature;BME280_humidity;BME280_pressure;Samples;Min_cycle;Max_cycle;Signal;HPM_P1;HPM_P2
2023/05/22 00:02:22;;;;;;;29.55;22.48;;;;;;;15.11;100.00;101345.41;5328961;27;20031;-64
2023/05/22 00:04:57;;;;;;;29.33;21.27;;;;;;;15.07;100.00;101334.06;5305953;28;20545;-64
2023/05/22 00:07:28;;;;;;;32.05;22.30;;;;;;;15.04;100.00;101334.31;5313263;28;20043;-64
2023/05/22 00:10:00;;;;;;;32.35;22.58;;;;;;;15.02;100.00;101336.28;5305519;27;20358;-65
2023/05/22 00:12:32;;;;;;;28.65;21.92;;;;;;;14.96;100.00;101333.28;5307535;27;20026;-64
2023/05/22 00:15:04;;;;;;;35.47;23.00;;;;;;;14.95;100.00;101331.59;5302067;28;20016;-64
2023/05/22 00:17:35;;;;;;;30.42;22.42;;;;;;;14.90;100.00;101334.69;5302887;28;20028;-65
2023/05/22 00:20:07;;;;;;;31.30;21.88;;;;;;;14.90;100.00;101342.75;5309837;28;20100;-64
2023/05/22 00:22:39;;;;;;;29.08;22.55;;;;;;;14.88;100.00;101329.44;5312010;27;20031;-65
2023/05/22 00:25:10;;;;;;;31.83;23.55;;;;;;;14.86;100.00;101343.97;5306545;28;20034;-64
2023/05/22 00:27:42;;;;;;;27.65;22.67;;;;;;;14.85;100.00;101336.91;5312978;28;20020;-64
2023/05/22 00:30:13;;;;;;;31.98;23.70;;;;;;;14.82;100.00;101334.47;5312553;28;20020;-64
2023/05/22 00:32:44;;;;;;;30.83;24.38;;;;;;;14.81;100.00;101335.50;5322571;27;20027;-64
2023/05/22 00:35:16;;;;;;;35.28;24.20;;;;;;;14.75;100.00;101326.13;5306396;28;20111;-64
2023/05/22 00:37:47;;;;;;;31.63;24.00;;;;;;;14.71;100.00;101324.69;5318398;28;20490;-64
2023/05/22 00:40:20;;;;;;;30.73;24.20;;;;;;;14.64;100.00;101329.72;5308698;28;20055;-64
2023/05/22 00:42:52;;;;;;;29.38;23.17;;;;;;;14.62;100.00;101330.84;5304712;28;20182;-65
2023/05/22 00:45:23;;;;;;;33.28;24.80;;;;;;;14.58;100.00;101332.94;5320564;28;20489;-64
2023/05/22 00:47:55;;;;;;;30.20;24.08;;;;;;;14.56;100.00;101324.13;5325460;28;20108;-64
2023/05/22 00:50:26;;;;;;;31.73;24.98;;;;;;;14.53;100.00;101329.75;5317039;28;20039;-64
2023/05/22 00:52:58;;;;;;;32.20;24.70;;;;;;;14.54;100.00;101327.94;5324475;28;20031;-65
2023/05/22 00:55:29;;;;;;;30.25;24.42;;;;;;;14.46;100.00;101328.59;5310460;28;20088;-64
2023/05/22 00:58:06;;;;;;;32.67;24.15;;;;;;;14.44;100.00;101328.72;5318880;28;20097;-64
2023/05/22 01:00:40;;;;;;;31.05;25.27;;;;;;;14.42;100.00;101325.31;5321890;28;20034;-64
2023/05/22 01:03:13;;;;;;;32.13;25.15;;;;;;;14.41;100.00;101330.81;5304850;28;20036;-64
2023/05/22 01:05:44;;;;;;;34.17;23.98;;;;;;;14.38;100.00;101337.31;5321067;28;20092;-65
2023/05/22 01:08:15;;;;;;;31.15;25.15;;;;;;;14.36;100.00;101331.19;5321079;27;20020;-64
2023/05/22 01:10:52;;;;;;;37.20;25.90;;;;;;;14.29;100.00;101325.50;5321864;28;20566;-64
2023/05/22 01:14:07;;;;;;;32.70;24.73;;;;;;;14.36;100.00;101327.66;5311836;28;20028;-64
2023/05/22 01:16:49;;;;;;;37.15;25.25;;;;;;;14.24;100.00;101330.41;5319925;28;20019;-64
2023/05/22 01:19:49;;;;;;;31.33;25.10;;;;;;;14.24;100.00;101327.72;5324277;27;20028;-64
2023/05/22 01:22:58;;;;;;;33.45;24.75;;;;;;;14.23;100.00;101326.03;5316648;28;20031;-64
2023/05/22 01:25:48;;;;;;;33.40;25.20;;;;;;;14.15;100.00;101327.66;5310616;28;20039;-64
2023/05/22 01:28:39;;;;;;;31.13;24.42;;;;;;;14.17;100.00;101329.22;5328777;27;20453;-64
2023/05/22 01:31:16;;;;;;;37.05;26.50;;;;;;;14.12;100.00;101328.75;5314110;28;20023;-64
2023/05/22 01:33:51;;;;;;;32.67;24.88;;;;;;;14.07;100.00;101325.59;5319913;28;20430;-65
2023/05/22 01:36:27;;;;;;;34.45;25.92;;;;;;;14.04;100.00;101317.81;5307796;28;20458;-64
2023/05/22 01:39:00;;;;;;;33.70;25.55;;;;;;;14.00;100.00;101325.28;5322164;27;20111;-64
2023/05/22 01:41:32;;;;;;;33.80;25.42;;;;;;;13.98;100.00;101324.56;5326738;27;20538;-64
2023/05/22 01:44:04;;;;;;;33.63;25.88;;;;;;;13.92;100.00;101325.03;5320326;28;20111;-64
2023/05/22 01:46:35;;;;;;;33.60;25.85;;;;;;;13.89;100.00;101326.16;5306286;28;20610;-64
2023/05/22 01:49:07;;;;;;;35.60;25.67;;;;;;;13.91;100.00;101318.00;5306526;28;20024;-64
2023/05/22 01:51:56;;;;;;;31.65;25.67;;;;;;;13.89;100.00;101320.78;5313269;28;20023;-64
2023/05/22 01:54:35;;;;;;;32.33;25.75;;;;;;;13.85;100.00;101318.50;5317895;28;20055;-64
2023/05/22 01:57:29;;;;;;;39.15;25.73;;;;;;;13.84;100.00;101317.63;5321560;28;20036;-64
2023/05/22 02:00:10;;;;;;;36.67;26.38;;;;;;;13.80;100.00;101316.19;5308699;28;20023;-64
2023/05/22 02:02:43;;;;;;;32.80;26.27;;;;;;;13.76;100.00;101320.09;5321084;28;20035;-64
2023/05/22 02:05:19;;;;;;;36.05;26.80;;;;;;;13.77;100.00;101313.78;5319652;27;20055;-64
2023/05/22 02:07:55;;;;;;;33.55;26.05;;;;;;;13.76;100.00;101313.91;5318748;27;20059;-64
2023/05/22 02:10:28;;;;;;;34.28;26.00;;;;;;;13.70;100.00;101312.56;5318169;28;20532;-64
2023/05/22 02:12:59;;;;;;;34.00;26.92;;;;;;;13.68;100.00;101318.06;5308513;27;20245;-64
2023/05/22 02:15:32;;;;;;;39.78;28.02;;;;;;;13.63;100.00;101319.41;5319862;28;20106;-64
2023/05/22 02:18:09;;;;;;;34.42;27.15;;;;;;;13.62;100.00;101315.03;5316690;28;20100;-65
2023/05/22 02:20:41;;;;;;;33.83;25.63;;;;;;;13.61;100.00;101316.00;5305245;28;20483;-66
2023/05/22 02:23:12;;;;;;;37.13;26.70;;;;;;;13.59;100.00;101317.97;5317115;28;20115;-66
2023/05/22 02:25:44;;;;;;;35.90;27.25;;;;;;;13.58;100.00;101316.28;5310917;27;20050;-65
2023/05/22 02:28:15;;;;;;;33.97;26.67;;;;;;;13.61;100.00;101318.69;5305858;28;20020;-66
2023/05/22 02:30:47;;;;;;;35.10;27.23;;;;;;;13.60;100.00;101311.63;5309733;27;20422;-66
2023/05/22 02:33:18;;;;;;;35.85;27.05;;;;;;;13.58;100.00;101308.22;5311781;28;20035;-65
2023/05/22 02:35:50;;;;;;;34.85;27.02;;;;;;;13.54;100.00;101299.56;5317518;28;20084;-66
2023/05/22 02:38:21;;;;;;;37.22;27.65;;;;;;;13.55;100.00;101306.63;5318310;27;20038;-66
2023/05/22 02:40:52;;;;;;;37.00;27.73;;;;;;;13.54;100.00;101299.56;5324837;27;20027;-66
2023/05/22 02:43:24;;;;;;;38.10;28.85;;;;;;;13.49;100.00;101297.25;5318748;27;20462;-66
2023/05/22 02:45:55;;;;;;;35.78;27.40;;;;;;;13.55;100.00;101308.47;5320654;27;20034;-65
2023/05/22 02:48:28;;;;;;;39.22;27.25;;;;;;;13.56;100.00;101302.09;5318290;27;20156;-65
2023/05/22 02:50:59;;;;;;;36.95;26.52;;;;;;;13.53;100.00;101298.72;5309977;27;20035;-66
2023/05/22 02:53:34;;;;;;;38.85;27.88;;;;;;;13.50;100.00;101290.94;5324467;27;20058;-66
2023/05/22 02:56:12;;;;;;;36.90;27.23;;;;;;;13.59;100.00;101296.50;5317752;28;20030;-65
2023/05/22 02:58:43;;;;;;;37.45;28.73;;;;;;;13.49;100.00;101297.25;5308545;28;20038;-65
2023/05/22 03:01:14;;;;;;;36.25;27.20;;;;;;;13.46;100.00;101297.53;5307733;28;20020;-65
2023/05/22 03:03:47;;;;;;;38.15;28.17;;;;;;;13.47;100.00;101296.53;5308833;27;20440;-65
2023/05/22 03:06:18;;;;;;;36.22;27.80;;;;;;;13.44;100.00;101294.13;5326964;27;20458;-65
2023/05/22 03:08:50;;;;;;;42.53;28.08;;;;;;;13.39;100.00;101300.81;5330178;27;20081;-66
2023/05/22 03:11:21;;;;;;;38.20;27.52;;;;;;;13.39;100.00;101295.47;5314942;28;20034;-65
2023/05/22 03:13:52;;;;;;;40.55;26.00;;;;;;;13.39;100.00;101295.47;5312829;28;20047;-65
2023/05/22 03:16:24;;;;;;;39.17;29.10;;;;;;;13.35;100.00;101294.88;5314064;28;20366;-65
2023/05/22 03:19:14;;;;;;;36.67;28.23;;;;;;;13.38;100.00;101297.28;5314370;28;20139;-65
2023/05/22 03:21:47;;;;;;;35.25;27.48;;;;;;;13.27;100.00;101286.53;5306967;28;20461;-65
2023/05/22 03:24:18;;;;;;;37.63;27.55;;;;;;;13.23;100.00;101291.31;5318699;28;20027;-66
2023/05/22 03:26:50;;;;;;;36.13;28.33;;;;;;;13.20;100.00;101290.72;5305335;28;20073;-65
2023/05/22 03:29:21;;;;;;;39.88;28.10;;;;;;;13.21;100.00;101289.72;5331059;27;20034;-66
2023/05/22 03:31:53;;;;;;;38.38;27.90;;;;;;;13.18;100.00;101298.03;5314723;27;20076;-66
2023/05/22 03:34:26;;;;;;;39.45;27.50;;;;;;;13.13;100.00;101293.88;5308894;27;20073;-66
2023/05/22 03:36:57;;;;;;;35.42;26.35;;;;;;;13.12;100.00;101294.84;5318660;27;20038;-66
2023/05/22 03:39:28;;;;;;;41.65;28.60;;;;;;;13.11;100.00;101289.59;5309036;27;20521;-65
2023/05/22 03:42:00;;;;;;;39.20;28.30;;;;;;;13.07;100.00;101286.31;5317404;27;20031;-65
2023/05/22 03:44:31;;;;;;;36.67;28.77;;;;;;;13.04;100.00;101288.38;5304682;28;20406;-66
2023/05/22 03:47:03;;;;;;;38.05;28.52;;;;;;;13.00;100.00;101294.97;5315716;27;20016;-65
2023/05/22 03:49:34;;;;;;;37.35;29.10;;;;;;;12.97;100.00;101303.25;5305050;28;20024;-65
2023/05/22 03:52:09;;;;;;;36.70;28.10;;;;;;;12.97;100.00;101300.59;5309389;27;20016;-65
2023/05/22 03:54:40;;;;;;;41.83;29.08;;;;;;;12.95;100.00;101292.66;5313023;28;20099;-66
2023/05/22 03:57:12;;;;;;;39.83;29.52;;;;;;;12.94;100.00;101291.81;5315871;28;20103;-65
2023/05/22 03:59:45;;;;;;;38.17;28.85;;;;;;;12.93;100.00;101283.91;5319380;28;20027;-65
2023/05/22 04:02:16;;;;;;;40.65;29.08;;;;;;;12.91;100.00;101283.19;5308963;28;20028;-66
2023/05/22 04:04:47;;;;;;;36.35;28.92;;;;;;;12.91;100.00;101281.34;5310480;28;20032;-65
2023/05/22 04:07:19;;;;;;;39.83;29.90;;;;;;;12.85;100.00;101281.84;5316028;28;20048;-66
2023/05/22 04:09:50;;;;;;;43.80;29.50;;;;;;;12.84;100.00;101292.66;5310468;28;20122;-65
2023/05/22 04:12:23;;;;;;;41.28;30.55;;;;;;;12.78;100.00;101279.75;5300643;28;20056;-65
2023/05/22 04:14:54;;;;;;;40.45;29.35;;;;;;;12.81;100.00;101284.84;5321367;27;20426;-66
2023/05/22 04:17:31;;;;;;;40.20;29.98;;;;;;;12.78;100.00;101282.44;5313302;27;20051;-66
2023/05/22 04:20:04;;;;;;;39.53;29.98;;;;;;;12.77;100.00;101283.41;5321032;27;20046;-66
2023/05/22 04:22:35;;;;;;;39.22;31.17;;;;;;;12.74;100.00;101290.69;5310936;27;20027;-65
2023/05/22 04:25:07;;;;;;;44.97;29.95;;;;;;;12.71;100.00;101285.59;5308661;28;20191;-65
2023/05/22 04:27:38;;;;;;;39.38;30.25;;;;;;;12.74;100.00;101293.38;5310870;28;20023;-65
2023/05/22 04:30:10;;;;;;;39.30;30.23;;;;;;;12.77;100.00;101299.47;5312052;27;20191;-65
2023/05/22 04:32:42;;;;;;;47.08;31.13;;;;;;;12.77;100.00;101299.47;5317074;28;20042;-66
2023/05/22 04:35:17;;;;;;;44.65;30.55;;;;;;;12.79;100.00;101302.88;5317843;28;20032;-65
2023/05/22 04:37:49;;;;;;;41.63;31.70;;;;;;;12.77;100.00;101304.81;5318816;28;20466;-65
2023/05/22 04:40:20;;;;;;;43.60;31.45;;;;;;;12.79;100.00;101310.91;5313495;28;20020;-66
2023/05/22 04:42:53;;;;;;;44.22;31.63;;;;;;;12.84;100.00;101319.44;5327149;27;20045;-66
2023/05/22 04:45:25;;;;;;;39.75;31.15;;;;;;;12.81;100.00;101320.53;5324843;28;20085;-65
2023/05/22 04:47:56;;;;;;;48.50;32.40;;;;;;;12.86;100.00;101320.16;5314176;28;20038;-66
2023/05/22 04:50:31;;;;;;;46.00;31.23;;;;;;;12.87;100.00;101321.88;5312643;28;20027;-66
2023/05/22 04:53:03;;;;;;;43.67;31.95;;;;;;;12.93;100.00;101322.25;5316768;28;20023;-66
2023/05/22 04:55:34;;;;;;;42.30;32.28;;;;;;;12.99;100.00;101328.94;5304893;28;20649;-66
2023/05/22 04:58:05;;;;;;;45.10;31.98;;;;;;;13.04;100.00;101326.75;5301028;28;20545;-66
2023/05/22 05:00:37;;;;;;;50.58;34.45;;;;;;;13.06;100.00;101327.50;5313749;28;20028;-65
2023/05/22 05:03:10;;;;;;;44.53;33.45;;;;;;;13.12;100.00;101336.88;5310790;28;20038;-66
2023/05/22 05:05:42;;;;;;;42.10;32.80;;;;;;;13.18;100.00;101330.19;5309269;28;20077;-66
2023/05/22 05:08:13;;;;;;;48.33;32.53;;;;;;;13.18;100.00;101331.03;5310950;28;20039;-65
2023/05/22 05:10:45;;;;;;;42.35;32.53;;;;;;;13.20;100.00;101339.78;5312287;28;20023;-65
2023/05/22 05:13:16;;;;;;;48.88;32.90;;;;;;;13.23;100.00;101334.19;5317617;28;20209;-65
2023/05/22 05:15:47;;;;;;;47.55;32.92;;;;;;;13.24;100.00;101338.56;5305141;28;20015;-65
2023/05/22 05:18:19;;;;;;;41.22;32.60;;;;;;;13.24;100.00;101340.41;5316750;28;20028;-66
2023/05/22 05:20:50;;;;;;;47.97;32.88;;;;;;;13.25;100.00;101350.13;5314417;28;20362;-65
2023/05/22 05:23:21;;;;;;;44.20;31.77;;;;;;;13.24;100.00;101346.59;5321174;28;20038;-65
2023/05/22 05:25:53;;;;;;;45.20;31.75;;;;;;;13.28;100.00;101345.38;5308268;28;20026;-65
2023/05/22 05:28:25;;;;;;;48.95;32.42;;;;;;;13.32;100.00;101343.34;5308861;28;20045;-66
2023/05/22 05:30:56;;;;;;;47.92;32.65;;;;;;;13.39;100.00;101344.56;5305826;28;20034;-65
2023/05/22 05:33:28;;;;;;;45.58;31.90;;;;;;;13.47;100.00;101336.75;5310137;28;20034;-65
2023/05/22 05:35:59;;;;;;;45.05;32.65;;;;;;;13.48;100.00;101341.13;5300452;28;20062;-66
2023/05/22 05:38:30;;;;;;;46.50;32.33;;;;;;;13.56;100.00;101345.00;5308251;28;20266;-66
2023/05/22 05:41:02;;;;;;;44.55;32.70;;;;;;;13.56;100.00;101335.16;5308442;28;20036;-66
2023/05/22 05:43:33;;;;;;;49.65;32.47;;;;;;;13.60;100.00;101333.94;5317931;28;20407;-66
2023/05/22 05:46:05;;;;;;;49.35;32.90;;;;;;;13.68;100.00;101327.94;5319748;27;20019;-66
2023/05/22 05:48:36;;;;;;;43.30;32.38;;;;;;;13.69;100.00;101334.97;5311356;28;20031;-65
2023/05/22 05:51:07;;;;;;;52.35;32.97;;;;;;;13.74;100.00;101330.09;5313775;28;20424;-65
2023/05/22 05:53:42;;;;;;;44.10;32.40;;;;;;;13.78;100.00;101338.75;5311218;28;20030;-66
2023/05/22 05:56:14;;;;;;;44.47;31.15;;;;;;;13.82;100.00;101327.63;5305103;27;20027;-66
2023/05/22 05:58:45;;;;;;;44.33;31.40;;;;;;;13.91;100.00;101334.94;5308596;27;20043;-66
2023/05/22 06:01:17;;;;;;;44.28;32.13;;;;;;;13.95;100.00;101335.53;5309257;28;20019;-66
2023/05/22 06:03:49;;;;;;;46.13;34.05;;;;;;;14.04;100.00;101342.81;5310814;27;20102;-67
2023/05/22 06:06:24;;;;;;;44.63;32.33;;;;;;;14.09;100.00;101353.16;5316937;27;20509;-65
2023/05/22 06:08:56;;;;;;;44.15;31.73;;;;;;;14.12;100.00;101348.38;5316624;27;20434;-65
2023/05/22 06:11:27;;;;;;;45.80;32.67;;;;;;;14.17;100.00;101345.34;5323353;27;20058;-66
2023/05/22 06:14:01;;;;;;;47.45;32.03;;;;;;;14.26;100.00;101346.38;5320121;27;20429;-66
2023/05/22 06:16:33;;;;;;;;;;;;;;;14.36;100.00;101346.44;5316404;28;20489;-66
2023/05/22 06:19:04;;;;;;;47.05;32.10;;;;;;;14.40;100.00;101353.25;5316554;27;19927;-66
2023/05/22 06:21:35;;;;;;;45.38;32.15;;;;;;;14.42;100.00;101353.97;5321430;28;20526;-66
2023/05/22 06:24:08;;;;;;;48.05;33.28;;;;;;;14.48;100.00;101353.47;5307618;28;20032;-66
2023/05/22 06:26:39;;;;;;;49.85;33.75;;;;;;;14.51;100.00;101355.88;5305587;28;20027;-66
2023/05/22 06:29:10;;;;;;;44.70;32.53;;;;;;;14.63;100.00;101352.22;5308173;28;20030;-66
2023/05/22 06:31:42;;;;;;;51.45;32.95;;;;;;;14.69;100.00;101357.06;5303275;27;20043;-66
2023/05/22 06:34:13;;;;;;;47.15;32.97;;;;;;;14.71;100.00;101359.59;5314926;28;20039;-66
2023/05/22 06:36:45;;;;;;;52.42;33.75;;;;;;;14.76;100.00;101367.25;5303640;27;20054;-66
2023/05/22 06:39:17;;;;;;;54.25;35.58;;;;;;;14.75;100.00;101360.19;5302486;27;20024;-66
2023/05/22 06:41:49;;;;;;;49.30;35.30;;;;;;;14.77;100.00;101364.44;5316431;27;20118;-66
2023/05/22 06:44:20;;;;;;;58.42;37.28;;;;;;;14.78;100.00;101359.91;5313706;27;20020;-66
2023/05/22 06:46:51;;;;;;;52.88;37.30;;;;;;;14.84;100.00;101365.63;5312048;28;20714;-66
2023/05/22 06:49:23;;;;;;;55.30;38.33;;;;;;;14.95;100.00;101364.69;5311779;27;20032;-66
2023/05/22 06:51:54;;;;;;;57.03;38.95;;;;;;;14.98;100.00;101367.13;5321089;27;20030;-66
2023/05/22 06:54:27;;;;;;;58.10;40.42;;;;;;;14.94;100.00;101367.50;5301883;28;20031;-66
2023/05/22 06:56:58;;;;;;;64.03;42.00;;;;;;;14.95;100.00;101364.69;5318871;27;20020;-66
2023/05/22 06:59:30;;;;;;;62.33;42.35;;;;;;;15.02;100.00;101368.53;5315303;28;20376;-66
2023/05/22 07:02:01;;;;;;;67.00;43.88;;;;;;;15.12;100.00;101373.13;5312837;27;20106;-66
2023/05/22 07:04:33;;;;;;;64.47;42.47;;;;;;;15.13;100.00;101378.38;5311923;27;20035;-66
2023/05/22 07:07:04;;;;;;;67.63;44.22;;;;;;;15.08;100.00;101378.75;5311376;27;20055;-66
2023/05/22 07:09:36;;;;;;;69.25;44.22;;;;;;;15.15;100.00;101386.28;5322689;27;20058;-66
2023/05/22 07:12:07;;;;;;;78.80;45.63;;;;;;;15.15;100.00;101384.47;5318034;28;20019;-66
2023/05/22 07:14:39;;;;;;;69.88;45.75;;;;;;;15.17;100.00;101387.00;5311986;27;20019;-66
2023/05/22 07:17:10;;;;;;;75.55;46.15;;;;;;;15.23;100.00;101398.06;5322138;27;20035;-66
2023/05/22 07:19:42;;;;;;;75.13;45.42;;;;;;;15.23;100.00;101397.22;5333204;27;20022;-66
2023/05/22 07:22:14;;;;;;;72.95;45.78;;;;;;;15.26;100.00;101392.44;5309176;27;20500;-66
2023/05/22 07:24:46;;;;;;;78.82;45.70;;;;;;;15.28;100.00;101398.53;5319421;28;20032;-66
2023/05/22 07:27:17;;;;;;;69.32;45.10;;;;;;;15.29;100.00;101392.16;5297467;28;20019;-66
2023/05/22 07:29:49;;;;;;;74.00;45.33;;;;;;;15.35;100.00;101406.91;5309147;28;20295;-66
2023/05/22 07:32:20;;;;;;;73.95;45.78;;;;;;;15.42;100.00;101408.06;5311579;27;20092;-66
2023/05/22 07:34:51;;;;;;;73.30;45.35;;;;;;;15.61;100.00;101401.91;5300607;28;20012;-66
2023/05/22 07:37:23;;;;;;;71.88;45.80;;;;;;;15.66;100.00;101405.03;5305243;28;20023;-66
2023/05/22 07:39:54;;;;;;;70.20;45.58;;;;;;;15.74;100.00;101403.53;5322315;27;20031;-66
2023/05/22 07:42:26;;;;;;;73.10;46.63;;;;;;;15.83;100.00;101402.72;5319104;27;20037;-66
2023/05/22 07:44:58;;;;;;;72.15;45.25;;;;;;;15.93;100.00;101400.88;5319085;27;20068;-66
2023/05/22 07:47:29;;;;;;;72.80;45.80;;;;;;;16.01;100.00;101405.56;5323316;27;20122;-66
2023/05/22 07:50:03;;;;;;;68.25;44.97;;;;;;;16.04;100.00;101405.28;5310781;28;20036;-66
2023/05/22 07:52:34;;;;;;;66.60;45.00;;;;;;;16.07;100.00;101405.88;5319187;28;20020;-66
2023/05/22 07:55:06;;;;;;;61.90;43.25;;;;;;;16.11;100.00;101411.84;5307332;28;20438;-66
2023/05/22 07:57:38;;;;;;;64.18;44.03;;;;;;;16.21;100.00;101406.47;5301528;28;20016;-66
2023/05/22 08:00:12;;;;;;;61.17;43.15;;;;;;;16.26;100.00;101412.25;5305807;27;20050;-66
2023/05/22 08:02:43;;;;;;;58.45;43.40;;;;;;;16.27;100.00;101412.13;5302371;28;20031;-66
2023/05/22 08:05:14;;;;;;;62.63;45.10;;;;;;;16.37;100.00;101412.13;5313997;27;20397;-66
2023/05/22 08:07:46;;;;;;;65.55;44.05;;;;;;;16.42;100.00;101420.63;5320824;27;20053;-66
2023/05/22 08:10:18;;;;;;;64.55;45.50;;;;;;;16.47;100.00;101412.13;5303807;27;20028;-66
2023/05/22 08:12:49;;;;;;;62.60;44.65;;;;;;;16.54;100.00;101405.16;5310688;28;20485;-66
2023/05/22 08:15:20;;;;;;;64.30;46.05;;;;;;;16.70;100.00;101412.66;5308703;28;20354;-66
2023/05/22 08:17:52;;;;;;;76.28;46.30;;;;;;;16.76;100.00;101416.63;5316677;28;20469;-66
2023/05/22 08:20:23;;;;;;;71.97;48.13;;;;;;;16.85;100.00;101408.56;5307917;28;20028;-66
2023/05/22 08:22:55;;;;;;;70.55;46.92;;;;;;;16.94;100.00;101400.63;5306353;28;20023;-66
2023/05/22 08:25:27;;;;;;;76.03;49.45;;;;;;;17.07;100.00;101408.38;5300820;28;20034;-66
2023/05/22 08:27:58;;;;;;;77.68;50.35;;;;;;;17.15;100.00;101403.13;5303859;28;20024;-66
2023/05/22 08:30:29;;;;;;;80.40;48.22;;;;;;;17.23;100.00;101414.00;5307895;28;20451;-66
2023/05/22 08:33:01;;;;;;;77.32;48.53;;;;;;;17.35;100.00;101404.72;5309460;27;20380;-66
2023/05/22 08:35:32;;;;;;;80.00;47.75;;;;;;;17.40;100.00;101413.25;5309136;28;20028;-66
2023/05/22 08:38:04;;;;;;;75.18;49.72;;;;;;;17.46;100.00;101400.16;5313093;28;20028;-66
2023/05/22 08:40:37;;;;;;;75.50;49.17;;;;;;;17.52;100.00;101403.09;5325837;28;20058;-66
2023/05/22 08:43:08;;;;;;;71.85;50.65;;;;;;;17.57;100.00;101398.13;5309444;28;20028;-66
2023/05/22 08:45:41;;;;;;;74.57;49.40;;;;;;;17.71;100.00;101399.47;5320273;28;20078;-66
2023/05/22 08:48:13;;;;;;;75.97;48.83;;;;;;;17.87;100.00;101403.38;5310255;28;20051;-66
2023/05/22 08:50:49;;;;;;;79.90;49.50;;;;;;;17.98;100.00;101406.72;5311990;28;20102;-66
2023/05/22 08:53:22;;;;;;;78.97;48.20;;;;;;;18.03;100.00;101396.31;5326944;27;20084;-67
2023/05/22 08:55:55;;;;;;;76.90;50.30;;;;;;;18.08;100.00;101401.25;5304296;28;20036;-66
2023/05/22 08:58:27;;;;;;;78.68;49.35;;;;;;;18.11;100.00;101400.94;5307298;28;20398;-66
2023/05/22 09:00:58;;;;;;;79.72;49.72;;;;;;;18.09;100.00;101396.72;5305094;28;20127;-66
2023/05/22 09:03:31;;;;;;;75.38;49.05;;;;;;;18.06;100.00;101397.00;5305122;28;20032;-66
2023/05/22 09:06:03;;;;;;;70.53;47.90;;;;;;;18.16;100.00;101390.53;5308184;28;20177;-66
2023/05/22 09:08:35;;;;;;;71.45;46.72;;;;;;;18.17;100.00;101388.69;5279756;28;20374;-66
2023/05/22 09:11:07;;;;;;;72.85;47.60;;;;;;;18.25;100.00;101394.16;5266332;28;20024;-66
2023/05/22 09:13:39;;;;;;;68.93;46.15;;;;;;;18.37;100.00;101394.75;5264862;28;20421;-66
2023/05/22 09:16:12;;;;;;;67.43;44.60;;;;;;;18.46;100.00;101399.25;5271263;28;20038;-66
2023/05/22 09:18:44;;;;;;;67.93;45.05;;;;;;;18.60;100.00;101396.00;5268500;28;20075;-66
2023/05/22 09:21:18;;;;;;;68.00;44.35;;;;;;;18.65;100.00;101398.22;5276086;28;20524;-66
2023/05/22 09:23:49;;;;;;;62.53;42.83;;;;;;;18.73;100.00;101392.03;5277335;28;20154;-66
2023/05/22 09:26:26;;;;;;;61.63;43.80;;;;;;;18.79;100.00;101396.78;5270139;28;20100;-66
2023/05/22 09:28:58;;;;;;;58.55;41.10;;;;;;;18.83;100.00;101394.66;5274226;28;20037;-66
2023/05/22 09:31:30;;;;;;;57.70;41.13;;;;;;;18.87;100.00;101388.81;5272788;28;20115;-66
2023/05/22 09:34:03;;;;;;;57.00;40.33;;;;;;;19.07;100.00;101391.28;5282827;28;20085;-67
2023/05/22 09:36:35;;;;;;;61.78;43.03;;;;;;;19.11;100.00;101389.94;5281104;28;20063;-66
2023/05/22 09:39:07;;;;;;;61.67;41.08;;;;;;;19.14;100.00;101393.19;5272475;28;20052;-67
2023/05/22 09:41:39;;;;;;;57.30;41.08;;;;;;;19.16;100.00;101390.34;5275071;28;20052;-66
2023/05/22 09:44:12;;;;;;;53.22;38.63;;;;;;;19.29;100.00;101389.88;5277695;28;20082;-66
2023/05/22 09:46:45;;;;;;;54.63;38.53;;;;;;;19.29;100.00;101393.44;5290674;28;20024;-66
2023/05/22 09:49:17;;;;;;;52.65;38.83;;;;;;;19.26;100.00;101379.38;5275676;28;20067;-66
2023/05/22 09:51:53;;;;;;;50.95;38.38;;;;;;;19.18;100.00;101378.34;5273384;28;20063;-66
2023/05/22 09:54:26;;;;;;;56.55;40.55;;;;;;;19.17;100.00;101373.91;5275107;28;20178;-66
2023/05/22 09:56:59;;;;;;;52.70;39.00;;;;;;;19.07;100.00;101380.47;5274132;28;20080;-66
2023/05/22 09:59:32;;;;;;;50.47;36.87;;;;;;;19.14;100.00;101378.81;5272309;28;20032;-67
2023/05/22 10:02:04;;;;;;;50.78;37.45;;;;;;;19.15;100.00;101375.09;5272702;28;20025;-66
2023/05/22 10:04:39;;;;;;;49.20;37.67;;;;;;;19.13;100.00;101380.66;5272007;28;20627;-66
2023/05/22 10:07:10;;;;;;;49.75;36.22;;;;;;;19.15;100.00;101384.03;5301197;28;20048;-66
2023/05/22 10:09:47;;;;;;;50.40;37.22;;;;;;;19.10;100.00;101380.13;5312697;27;20027;-66
2023/05/22 10:12:22;;;;;;;47.60;36.08;;;;;;;19.26;100.00;101379.38;5310077;28;20020;-66
2023/05/22 10:14:54;;;;;;;45.45;34.85;;;;;;;19.36;100.00;101378.25;5308098;28;20028;-66
2023/05/22 10:17:26;;;;;;;51.00;35.45;;;;;;;19.47;100.00;101377.13;5312129;28;20059;-66
2023/05/22 10:19:58;;;;;;;47.42;35.85;;;;;;;19.48;100.00;101377.94;5317122;28;20028;-67
2023/05/22 10:22:31;;;;;;;43.10;35.15;;;;;;;19.47;100.00;101381.69;5288779;27;20135;-66
2023/05/22 10:25:04;;;;;;;46.17;34.25;;;;;;;19.49;100.00;101375.09;5312116;28;20031;-66
2023/05/22 10:27:36;;;;;;;45.95;34.70;;;;;;;19.57;100.00;101375.13;5310049;28;20028;-66
2023/05/22 10:30:07;;;;;;;48.80;32.75;;;;;;;19.62;100.00;101371.06;5315845;28;20030;-66
2023/05/22 10:32:44;;;;;;;45.33;32.58;;;;;;;19.64;100.00;101369.91;5310188;28;20466;-66
2023/05/22 10:35:33;;;;;;;42.22;32.95;;;;;;;19.73;100.00;101370.78;5309224;28;20077;-66
2023/05/22 10:38:31;;;;;;;43.67;34.58;;;;;;;19.85;100.00;101360.50;5305746;28;20035;-66
2023/05/22 10:41:03;;;;;;;45.40;34.35;;;;;;;19.82;100.00;101366.25;5311251;28;20020;-66
2023/05/22 10:43:41;;;;;;;45.92;32.35;;;;;;;19.89;100.00;101360.03;5320448;27;20031;-67
2023/05/22 10:46:12;;;;;;;43.55;32.90;;;;;;;19.92;100.00;101358.84;5317229;28;20035;-66
2023/05/22 10:48:46;;;;;;;44.25;33.55;;;;;;;20.06;100.00;101360.03;5307589;27;20027;-66
2023/05/22 10:51:22;;;;;;;40.55;32.88;;;;;;;20.16;100.00;101360.75;5308753;27;20486;-66
2023/05/22 10:54:04;;;;;;;38.45;31.70;;;;;;;20.29;100.00;101357.53;5314133;27;20063;-66
2023/05/22 10:56:37;;;;;;;41.05;32.88;;;;;;;20.33;100.00;101345.34;5307622;28;20052;-66
2023/05/22 10:59:08;;;;;;;39.08;31.65;;;;;;;20.44;100.00;101355.84;5304473;28;20068;-66
2023/05/22 11:01:39;;;;;;;35.75;31.23;;;;;;;20.53;100.00;101352.09;5315770;28;20397;-67
2023/05/22 11:04:11;;;;;;;39.20;30.75;;;;;;;20.73;100.00;101349.09;5305688;28;20539;-67
2023/05/22 11:06:46;;;;;;;37.50;29.35;;;;;;;20.91;100.00;101354.28;5317475;27;20075;-66
2023/05/22 11:09:28;;;;;;;37.92;30.25;;;;;;;21.04;100.00;101348.34;5314256;28;20031;-66
2023/05/22 11:12:20;;;;;;;34.70;28.38;;;;;;;21.31;100.00;101349.75;5309089;27;20466;-66
2023/05/22 11:15:01;;;;;;;37.00;29.17;;;;;;;21.38;100.00;101348.00;5314827;27;20034;-66
2023/05/22 11:17:35;;;;;;;36.08;27.92;;;;;;;21.45;100.00;101346.31;5315693;28;20027;-67
2023/05/22 11:20:19;;;;;;;37.50;29.25;;;;;;;21.57;100.00;101346.78;5320826;28;20020;-66
2023/05/22 11:22:58;;;;;;;35.90;28.10;;;;;;;21.69;100.00;101337.22;5303834;28;20423;-66
2023/05/22 11:25:32;;;;;;;36.33;28.45;;;;;;;21.80;100.00;101343.25;5322712;27;20039;-67
2023/05/22 11:28:05;;;;;;;34.20;27.17;;;;;;;21.81;100.00;101329.50;5306321;28;20042;-67
2023/05/22 11:30:37;;;;;;;35.47;28.55;;;;;;;21.77;100.00;101333.59;5304168;27;20048;-66